sensor_id;sensor_type;location;lat;lon;timestamp;temperature;humidity
14873;DHT22;7528;48.576;19.122;2024-03-06T00:04:12;10.10;64.20
14873;DHT22;7528;48.576;19.122;2024-03-06T00:09:15;10.00;64.70
14873;DHT22;7528;48.576;19.122;2024-03-06T00:14:18;10.00;65.20
14873;DHT22;7528;48.576;19.122;2024-03-06T00:19:22;10.00;65.40
14873;DHT22;7528;48.576;19.122;2024-03-06T00:24:26;9.90;65.90
14873;DHT22;7528;48.576;19.122;2024-03-06T00:29:30;10.10;65.10
14873;DHT22;7528;48.576;19.122;2024-03-06T00:34:32;10.00;65.40
14873;DHT22;7528;48.576;19.122;2024-03-06T00:39:35;9.90;65.90
14873;DHT22;7528;48.576;19.122;2024-03-06T00:44:39;9.90;66.10
14873;DHT22;7528;48.576;19.122;2024-03-06T00:49:41;10.00;66.20
14873;DHT22;7528;48.576;19.122;2024-03-06T00:54:44;10.00;66.30
14873;DHT22;7528;48.576;19.122;2024-03-06T00:59:48;9.90;66.10
14873;DHT22;7528;48.576;19.122;2024-03-06T01:04:50;9.90;66.90
14873;DHT22;7528;48.576;19.122;2024-03-06T01:09:52;9.90;66.70
14873;DHT22;7528;48.576;19.122;2024-03-06T01:14:56;9.90;66.40
14873;DHT22;7528;48.576;19.122;2024-03-06T01:19:58;9.80;66.40
14873;DHT22;7528;48.576;19.122;2024-03-06T01:25:02;9.70;66.70
14873;DHT22;7528;48.576;19.122;2024-03-06T01:30:08;9.70;66.70
14873;DHT22;7528;48.576;19.122;2024-03-06T01:35:10;9.60;66.80
14873;DHT22;7528;48.576;19.122;2024-03-06T01:40:13;9.50;66.70
14873;DHT22;7528;48.576;19.122;2024-03-06T01:45:17;9.50;66.40
14873;DHT22;7528;48.576;19.122;2024-03-06T01:50:20;9.50;66.60
14873;DHT22;7528;48.576;19.122;2024-03-06T01:55:23;9.40;66.30
14873;DHT22;7528;48.576;19.122;2024-03-06T02:00:27;9.30;67.00
14873;DHT22;7528;48.576;19.122;2024-03-06T02:05:30;9.30;67.20
14873;DHT22;7528;48.576;19.122;2024-03-06T02:10:34;9.20;67.60
14873;DHT22;7528;48.576;19.122;2024-03-06T02:15:37;9.20;67.40
14873;DHT22;7528;48.576;19.122;2024-03-06T02:20:41;9.20;67.30
14873;DHT22;7528;48.576;19.122;2024-03-06T02:25:44;9.10;67.40
14873;DHT22;7528;48.576;19.122;2024-03-06T02:30:50;9.00;67.50
14873;DHT22;7528;48.576;19.122;2024-03-06T02:35:53;9.00;67.30
14873;DHT22;7528;48.576;19.122;2024-03-06T02:40:56;8.90;67.50
14873;DHT22;7528;48.576;19.122;2024-03-06T02:46:03;8.90;67.80
14873;DHT22;7528;48.576;19.122;2024-03-06T02:51:07;8.80;67.60
14873;DHT22;7528;48.576;19.122;2024-03-06T02:56:16;8.80;67.50
14873;DHT22;7528;48.576;19.122;2024-03-06T03:01:18;8.80;67.40
14873;DHT22;7528;48.576;19.122;2024-03-06T03:06:22;8.70;67.80
14873;DHT22;7528;48.576;19.122;2024-03-06T03:11:24;8.80;67.50
14873;DHT22;7528;48.576;19.122;2024-03-06T03:16:27;8.60;68.10
14873;DHT22;7528;48.576;19.122;2024-03-06T03:21:32;8.50;68.30
14873;DHT22;7528;48.576;19.122;2024-03-06T03:26:34;8.50;68.40
14873;DHT22;7528;48.576;19.122;2024-03-06T03:31:37;8.50;68.30
14873;DHT22;7528;48.576;19.122;2024-03-06T03:36:44;8.40;68.10
14873;DHT22;7528;48.576;19.122;2024-03-06T03:41:47;8.30;68.70
14873;DHT22;7528;48.576;19.122;2024-03-06T03:46:50;8.20;69.10
14873;DHT22;7528;48.576;19.122;2024-03-06T03:51:53;8.20;69.20
14873;DHT22;7528;48.576;19.122;2024-03-06T03:56:56;8.20;69.50
14873;DHT22;7528;48.576;19.122;2024-03-06T04:02:00;8.10;69.80
14873;DHT22;7528;48.576;19.122;2024-03-06T04:07:04;8.20;69.90
14873;DHT22;7528;48.576;19.122;2024-03-06T04:12:06;8.20;69.40
14873;DHT22;7528;48.576;19.122;2024-03-06T04:17:08;8.00;69.30
14873;DHT22;7528;48.576;19.122;2024-03-06T04:22:12;8.00;69.90
14873;DHT22;7528;48.576;19.122;2024-03-06T04:27:15;8.10;70.30
14873;DHT22;7528;48.576;19.122;2024-03-06T04:32:17;8.10;70.60
14873;DHT22;7528;48.576;19.122;2024-03-06T04:37:21;8.10;70.60
14873;DHT22;7528;48.576;19.122;2024-03-06T04:42:24;8.10;70.30
14873;DHT22;7528;48.576;19.122;2024-03-06T04:47:26;8.10;70.40
14873;DHT22;7528;48.576;19.122;2024-03-06T04:52:30;8.10;70.60
14873;DHT22;7528;48.576;19.122;2024-03-06T04:57:32;8.10;70.80
14873;DHT22;7528;48.576;19.122;2024-03-06T05:02:34;8.20;70.30
14873;DHT22;7528;48.576;19.122;2024-03-06T05:07:39;8.00;70.80
14873;DHT22;7528;48.576;19.122;2024-03-06T05:12:41;8.00;71.30
14873;DHT22;7528;48.576;19.122;2024-03-06T05:17:43;8.10;71.60
14873;DHT22;7528;48.576;19.122;2024-03-06T05:22:47;8.00;71.70
14873;DHT22;7528;48.576;19.122;2024-03-06T05:27:49;8.00;72.10
14873;DHT22;7528;48.576;19.122;2024-03-06T05:32:52;8.10;72.10
14873;DHT22;7528;48.576;19.122;2024-03-06T05:37:56;8.10;71.80
14873;DHT22;7528;48.576;19.122;2024-03-06T05:42:58;8.10;72.00
14873;DHT22;7528;48.576;19.122;2024-03-06T05:48:00;8.10;72.10
14873;DHT22;7528;48.576;19.122;2024-03-06T05:53:06;8.20;72.00
14873;DHT22;7528;48.576;19.122;2024-03-06T05:58:08;8.10;72.00
14873;DHT22;7528;48.576;19.122;2024-03-06T06:03:11;8.20;72.40
14873;DHT22;7528;48.576;19.122;2024-03-06T06:08:15;8.30;72.30
14873;DHT22;7528;48.576;19.122;2024-03-06T06:13:17;8.30;71.90
14873;DHT22;7528;48.576;19.122;2024-03-06T06:18:19;8.30;72.20
14873;DHT22;7528;48.576;19.122;2024-03-06T06:23:23;8.40;72.30
14873;DHT22;7528;48.576;19.122;2024-03-06T06:28:25;8.40;72.30
14873;DHT22;7528;48.576;19.122;2024-03-06T06:33:28;8.40;72.60
14873;DHT22;7528;48.576;19.122;2024-03-06T06:38:31;8.50;72.60
14873;DHT22;7528;48.576;19.122;2024-03-06T06:43:34;8.50;72.30
14873;DHT22;7528;48.576;19.122;2024-03-06T06:48:36;8.60;72.40
14873;DHT22;7528;48.576;19.122;2024-03-06T06:53:40;8.70;72.20
14873;DHT22;7528;48.576;19.122;2024-03-06T06:58:43;8.70;72.10
14873;DHT22;7528;48.576;19.122;2024-03-06T07:03:46;8.80;72.40
14873;DHT22;7528;48.576;19.122;2024-03-06T07:08:50;9.00;72.60
14873;DHT22;7528;48.576;19.122;2024-03-06T07:13:53;9.00;71.80
14873;DHT22;7528;48.576;19.122;2024-03-06T07:18:55;9.10;72.40
14873;DHT22;7528;48.576;19.122;2024-03-06T07:23:59;9.20;71.90
14873;DHT22;7528;48.576;19.122;2024-03-06T07:29:01;9.40;71.60
14873;DHT22;7528;48.576;19.122;2024-03-06T07:34:03;9.40;71.50
14873;DHT22;7528;48.576;19.122;2024-03-06T07:39:09;9.50;71.60
14873;DHT22;7528;48.576;19.122;2024-03-06T07:44:13;9.70;71.40
14873;DHT22;7528;48.576;19.122;2024-03-06T07:49:15;9.80;71.80
14873;DHT22;7528;48.576;19.122;2024-03-06T07:54:19;9.90;72.50
14873;DHT22;7528;48.576;19.122;2024-03-06T07:59:21;10.10;71.80
14873;DHT22;7528;48.576;19.122;2024-03-06T08:04:24;10.10;71.10
14873;DHT22;7528;48.576;19.122;2024-03-06T08:09:29;10.20;71.10
14873;DHT22;7528;48.576;19.122;2024-03-06T08:14:31;10.40;70.80
14873;DHT22;7528;48.576;19.122;2024-03-06T08:19:33;10.70;71.60
14873;DHT22;7528;48.576;19.122;2024-03-06T08:24:37;10.90;69.00
14873;DHT22;7528;48.576;19.122;2024-03-06T08:29:39;11.10;68.70
14873;DHT22;7528;48.576;19.122;2024-03-06T08:34:42;11.40;67.70
14873;DHT22;7528;48.576;19.122;2024-03-06T08:39:45;11.80;67.10
14873;DHT22;7528;48.576;19.122;2024-03-06T08:44:49;12.20;67.80
14873;DHT22;7528;48.576;19.122;2024-03-06T08:49:51;12.70;65.20
14873;DHT22;7528;48.576;19.122;2024-03-06T08:54:55;13.10;62.90
14873;DHT22;7528;48.576;19.122;2024-03-06T08:59:57;13.70;62.50
14873;DHT22;7528;48.576;19.122;2024-03-06T09:05:00;13.90;60.90
14873;DHT22;7528;48.576;19.122;2024-03-06T09:10:07;14.00;59.40
14873;DHT22;7528;48.576;19.122;2024-03-06T09:15:10;14.30;59.00
14873;DHT22;7528;48.576;19.122;2024-03-06T09:20:13;14.60;59.10
14873;DHT22;7528;48.576;19.122;2024-03-06T09:25:18;15.00;56.50
14873;DHT22;7528;48.576;19.122;2024-03-06T09:30:20;15.40;55.00
14873;DHT22;7528;48.576;19.122;2024-03-06T09:35:23;16.20;54.30
14873;DHT22;7528;48.576;19.122;2024-03-06T09:40:27;17.10;51.30
14873;DHT22;7528;48.576;19.122;2024-03-06T09:45:30;17.40;50.00
14873;DHT22;7528;48.576;19.122;2024-03-06T09:50:34;17.50;48.30
14873;DHT22;7528;48.576;19.122;2024-03-06T09:55:41;17.30;47.30
14873;DHT22;7528;48.576;19.122;2024-03-06T10:00:44;17.20;47.30
14873;DHT22;7528;48.576;19.122;2024-03-06T10:05:47;17.10;46.60
14873;DHT22;7528;48.576;19.122;2024-03-06T10:10:51;17.20;46.50
14873;DHT22;7528;48.576;19.122;2024-03-06T10:15:57;17.20;45.70
14873;DHT22;7528;48.576;19.122;2024-03-06T10:21:00;17.90;44.10
14873;DHT22;7528;48.576;19.122;2024-03-06T10:26:07;18.50;42.80
14873;DHT22;7528;48.576;19.122;2024-03-06T10:31:10;18.70;42.10
14873;DHT22;7528;48.576;19.122;2024-03-06T10:36:12;19.00;42.10
14873;DHT22;7528;48.576;19.122;2024-03-06T10:41:17;19.30;40.50
14873;DHT22;7528;48.576;19.122;2024-03-06T10:46:23;19.30;39.70
14873;DHT22;7528;48.576;19.122;2024-03-06T10:51:26;19.80;38.40
14873;DHT22;7528;48.576;19.122;2024-03-06T10:56:32;19.70;37.20
14873;DHT22;7528;48.576;19.122;2024-03-06T11:01:34;19.50;37.90
14873;DHT22;7528;48.576;19.122;2024-03-06T11:06:37;19.60;38.60
14873;DHT22;7528;48.576;19.122;2024-03-06T11:11:49;20.00;37.60
14873;DHT22;7528;48.576;19.122;2024-03-06T11:17:04;21.00;36.20
14873;DHT22;7528;48.576;19.122;2024-03-06T11:22:07;20.90;35.20
14873;DHT22;7528;48.576;19.122;2024-03-06T11:27:11;21.30;35.40
14873;DHT22;7528;48.576;19.122;2024-03-06T11:32:17;22.80;34.60
14873;DHT22;7528;48.576;19.122;2024-03-06T11:37:20;23.60;31.20
14873;DHT22;7528;48.576;19.122;2024-03-06T11:42:34;22.70;32.10
14873;DHT22;7528;48.576;19.122;2024-03-06T11:53:18;25.20;29.20
14873;DHT22;7528;48.576;19.122;2024-03-06T11:58:22;25.70;28.30
14873;DHT22;7528;48.576;19.122;2024-03-06T12:03:25;26.20;27.90
14873;DHT22;7528;48.576;19.122;2024-03-06T12:08:27;26.20;28.10
14873;DHT22;7528;48.576;19.122;2024-03-06T12:13:31;27.40;27.10
14873;DHT22;7528;48.576;19.122;2024-03-06T12:18:34;28.60;24.80
14873;DHT22;7528;48.576;19.122;2024-03-06T12:23:36;28.90;24.30
14873;DHT22;7528;48.576;19.122;2024-03-06T12:28:40;27.80;25.60
14873;DHT22;7528;48.576;19.122;2024-03-06T12:33:42;27.90;24.60
14873;DHT22;7528;48.576;19.122;2024-03-06T12:38:44;27.00;25.40
14873;DHT22;7528;48.576;19.122;2024-03-06T12:43:48;26.00;26.90
14873;DHT22;7528;48.576;19.122;2024-03-06T12:48:51;25.90;27.10
14873;DHT22;7528;48.576;19.122;2024-03-06T12:53:53;26.10;27.30
14873;DHT22;7528;48.576;19.122;2024-03-06T12:58:57;26.80;25.50
14873;DHT22;7528;48.576;19.122;2024-03-06T13:03:59;28.20;24.70
14873;DHT22;7528;48.576;19.122;2024-03-06T13:09:01;29.40;23.80
14873;DHT22;7528;48.576;19.122;2024-03-06T13:14:05;30.30;22.20
14873;DHT22;7528;48.576;19.122;2024-03-06T13:19:07;31.00;21.50
14873;DHT22;7528;48.576;19.122;2024-03-06T13:24:12;30.70;22.20
14873;DHT22;7528;48.576;19.122;2024-03-06T13:29:16;29.40;22.80
14873;DHT22;7528;48.576;19.122;2024-03-06T13:34:18;29.70;22.60
14873;DHT22;7528;48.576;19.122;2024-03-06T13:39:21;30.70;22.20
14873;DHT22;7528;48.576;19.122;2024-03-06T13:44:24;31.90;21.20
14873;DHT22;7528;48.576;19.122;2024-03-06T13:49:38;31.40;21.20
14873;DHT22;7528;48.576;19.122;2024-03-06T13:54:42;31.80;21.20
14873;DHT22;7528;48.576;19.122;2024-03-06T13:59:46;32.40;20.30
14873;DHT22;7528;48.576;19.122;2024-03-06T14:04:48;32.50;20.20
14873;DHT22;7528;48.576;19.122;2024-03-06T14:09:51;31.30;20.60
14873;DHT22;7528;48.576;19.122;2024-03-06T14:14:55;31.70;20.80
14873;DHT22;7528;48.576;19.122;2024-03-06T14:19:57;31.90;20.20
14873;DHT22;7528;48.576;19.122;2024-03-06T14:24:59;31.70;20.50
14873;DHT22;7528;48.576;19.122;2024-03-06T14:30:03;30.90;21.00
14873;DHT22;7528;48.576;19.122;2024-03-06T14:35:08;29.80;21.30
14873;DHT22;7528;48.576;19.122;2024-03-06T14:40:11;29.50;21.50
14873;DHT22;7528;48.576;19.122;2024-03-06T14:45:15;29.00;22.90
14873;DHT22;7528;48.576;19.122;2024-03-06T14:50:17;28.30;22.80
14873;DHT22;7528;48.576;19.122;2024-03-06T14:55:20;26.30;24.40
14873;DHT22;7528;48.576;19.122;2024-03-06T15:00:23;25.00;25.70
14873;DHT22;7528;48.576;19.122;2024-03-06T15:05:26;24.20;26.80
14873;DHT22;7528;48.576;19.122;2024-03-06T15:10:28;24.10;27.30
14873;DHT22;7528;48.576;19.122;2024-03-06T15:15:33;23.40;28.70
14873;DHT22;7528;48.576;19.122;2024-03-06T15:20:36;22.80;29.00
14873;DHT22;7528;48.576;19.122;2024-03-06T15:25:38;22.70;29.40
14873;DHT22;7528;48.576;19.122;2024-03-06T15:30:42;22.80;28.60
14873;DHT22;7528;48.576;19.122;2024-03-06T15:35:44;22.10;28.90
14873;DHT22;7528;48.576;19.122;2024-03-06T15:40:47;21.60;29.60
14873;DHT22;7528;48.576;19.122;2024-03-06T15:45:52;21.40;29.80
14873;DHT22;7528;48.576;19.122;2024-03-06T15:50:55;21.10;30.40
14873;DHT22;7528;48.576;19.122;2024-03-06T15:55:57;21.00;30.70
14873;DHT22;7528;48.576;19.122;2024-03-06T16:01:01;20.70;31.50
14873;DHT22;7528;48.576;19.122;2024-03-06T16:06:04;20.30;32.10
14873;DHT22;7528;48.576;19.122;2024-03-06T16:11:07;20.10;35.10
14873;DHT22;7528;48.576;19.122;2024-03-06T16:16:10;19.80;37.40
14873;DHT22;7528;48.576;19.122;2024-03-06T16:21:17;19.50;38.60
14873;DHT22;7528;48.576;19.122;2024-03-06T16:26:20;19.20;39.30
14873;DHT22;7528;48.576;19.122;2024-03-06T16:31:24;18.80;40.30
14873;DHT22;7528;48.576;19.122;2024-03-06T16:36:26;18.50;41.20
14873;DHT22;7528;48.576;19.122;2024-03-06T16:41:29;18.30;41.90
14873;DHT22;7528;48.576;19.122;2024-03-06T16:46:33;18.00;42.30
14873;DHT22;7528;48.576;19.122;2024-03-06T16:51:35;17.90;42.90
14873;DHT22;7528;48.576;19.122;2024-03-06T16:56:38;17.70;43.70
14873;DHT22;7528;48.576;19.122;2024-03-06T17:01:41;17.50;44.50
14873;DHT22;7528;48.576;19.122;2024-03-06T17:06:44;17.20;45.00
14873;DHT22;7528;48.576;19.122;2024-03-06T17:11:46;17.10;45.40
14873;DHT22;7528;48.576;19.122;2024-03-06T17:16:50;16.80;46.30
14873;DHT22;7528;48.576;19.122;2024-03-06T17:21:52;16.60;46.20
14873;DHT22;7528;48.576;19.122;2024-03-06T17:26:54;16.60;46.60
14873;DHT22;7528;48.576;19.122;2024-03-06T17:31:58;16.50;47.00
14873;DHT22;7528;48.576;19.122;2024-03-06T17:37:01;16.30;47.20
14873;DHT22;7528;48.576;19.122;2024-03-06T17:42:06;16.20;46.50
14873;DHT22;7528;48.576;19.122;2024-03-06T17:47:10;16.00;47.10
14873;DHT22;7528;48.576;19.122;2024-03-06T17:52:12;15.90;46.20
14873;DHT22;7528;48.576;19.122;2024-03-06T17:57:15;15.70;45.90
14873;DHT22;7528;48.576;19.122;2024-03-06T18:02:19;15.60;46.50
14873;DHT22;7528;48.576;19.122;2024-03-06T18:07:21;15.50;47.50
14873;DHT22;7528;48.576;19.122;2024-03-06T18:12:24;15.40;47.90
14873;DHT22;7528;48.576;19.122;2024-03-06T18:17:28;15.20;48.10
14873;DHT22;7528;48.576;19.122;2024-03-06T18:22:30;15.10;48.40
14873;DHT22;7528;48.576;19.122;2024-03-06T18:27:34;14.90;49.00
14873;DHT22;7528;48.576;19.122;2024-03-06T18:32:38;14.80;49.10
14873;DHT22;7528;48.576;19.122;2024-03-06T18:37:40;14.70;49.50
14873;DHT22;7528;48.576;19.122;2024-03-06T18:42:42;14.70;49.60
14873;DHT22;7528;48.576;19.122;2024-03-06T18:47:46;14.70;50.10
14873;DHT22;7528;48.576;19.122;2024-03-06T18:52:48;14.60;50.00
14873;DHT22;7528;48.576;19.122;2024-03-06T18:57:51;14.40;50.30
14873;DHT22;7528;48.576;19.122;2024-03-06T19:02:55;14.30;50.70
14873;DHT22;7528;48.576;19.122;2024-03-06T19:07:57;14.30;51.10
14873;DHT22;7528;48.576;19.122;2024-03-06T19:13:00;14.30;51.00
14873;DHT22;7528;48.576;19.122;2024-03-06T19:18:04;14.20;51.20
14873;DHT22;7528;48.576;19.122;2024-03-06T19:23:06;14.10;50.80
14873;DHT22;7528;48.576;19.122;2024-03-06T19:28:09;14.10;51.60
14873;DHT22;7528;48.576;19.122;2024-03-06T19:33:12;14.00;52.00
14873;DHT22;7528;48.576;19.122;2024-03-06T19:38:15;14.10;52.40
14873;DHT22;7528;48.576;19.122;2024-03-06T19:43:19;14.00;52.40
14873;DHT22;7528;48.576;19.122;2024-03-06T19:48:23;14.00;53.40
14873;DHT22;7528;48.576;19.122;2024-03-06T19:53:25;14.00;53.20
14873;DHT22;7528;48.576;19.122;2024-03-06T19:58:27;14.00;52.50
14873;DHT22;7528;48.576;19.122;2024-03-06T20:03:31;14.00;52.00
14873;DHT22;7528;48.576;19.122;2024-03-06T20:08:33;13.90;52.00
14873;DHT22;7528;48.576;19.122;2024-03-06T20:13:36;13.90;52.80
14873;DHT22;7528;48.576;19.122;2024-03-06T20:18:40;13.80;53.70
14873;DHT22;7528;48.576;19.122;2024-03-06T20:23:42;13.70;54.40
14873;DHT22;7528;48.576;19.122;2024-03-06T20:28:44;13.60;54.40
14873;DHT22;7528;48.576;19.122;2024-03-06T20:33:50;13.60;54.30
14873;DHT22;7528;48.576;19.122;2024-03-06T20:38:54;13.60;55.50
14873;DHT22;7528;48.576;19.122;2024-03-06T20:43:56;13.60;56.20
14873;DHT22;7528;48.576;19.122;2024-03-06T20:49:00;13.60;55.40
14873;DHT22;7528;48.576;19.122;2024-03-06T20:54:03;13.50;55.70
14873;DHT22;7528;48.576;19.122;2024-03-06T20:59:05;13.50;55.60
14873;DHT22;7528;48.576;19.122;2024-03-06T21:04:09;13.40;55.90
14873;DHT22;7528;48.576;19.122;2024-03-06T21:09:15;13.20;55.80
14873;DHT22;7528;48.576;19.122;2024-03-06T21:14:17;13.10;55.50
14873;DHT22;7528;48.576;19.122;2024-03-06T21:19:22;13.10;55.50
14873;DHT22;7528;48.576;19.122;2024-03-06T21:24:25;13.00;55.10
14873;DHT22;7528;48.576;19.122;2024-03-06T21:29:28;13.00;55.80
14873;DHT22;7528;48.576;19.122;2024-03-06T21:34:32;13.00;55.10
14873;DHT22;7528;48.576;19.122;2024-03-06T21:39:34;13.00;54.80
14873;DHT22;7528;48.576;19.122;2024-03-06T21:44:36;13.00;54.80
14873;DHT22;7528;48.576;19.122;2024-03-06T21:49:43;12.90;55.30
14873;DHT22;7528;48.576;19.122;2024-03-06T21:54:46;13.00;55.70
14873;DHT22;7528;48.576;19.122;2024-03-06T21:59:48;13.10;55.30
14873;DHT22;7528;48.576;19.122;2024-03-06T22:04:52;12.90;55.80
14873;DHT22;7528;48.576;19.122;2024-03-06T22:09:55;13.00;56.40
14873;DHT22;7528;48.576;19.122;2024-03-06T22:14:57;12.90;56.60
14873;DHT22;7528;48.576;19.122;2024-03-06T22:20:01;12.80;56.90
14873;DHT22;7528;48.576;19.122;2024-03-06T22:25:05;12.80;56.20
14873;DHT22;7528;48.576;19.122;2024-03-06T22:30:09;12.80;56.50
14873;DHT22;7528;48.576;19.122;2024-03-06T22:35:13;12.90;56.80
14873;DHT22;7528;48.576;19.122;2024-03-06T22:40:15;12.80;57.00
14873;DHT22;7528;48.576;19.122;2024-03-06T22:45:18;12.80;57.00
14873;DHT22;7528;48.576;19.122;2024-03-06T22:50:21;12.80;57.80
14873;DHT22;7528;48.576;19.122;2024-03-06T22:55:24;12.70;57.30
14873;DHT22;7528;48.576;19.122;2024-03-06T23:00:26;12.80;56.80
14873;DHT22;7528;48.576;19.122;2024-03-06T23:05:36;12.70;57.40
14873;DHT22;7528;48.576;19.122;2024-03-06T23:10:40;12.70;57.40
14873;DHT22;7528;48.576;19.122;2024-03-06T23:15:42;12.60;57.40
14873;DHT22;7528;48.576;19.122;2024-03-06T23:20:47;12.50;57.60
14873;DHT22;7528;48.576;19.122;2024-03-06T23:25:50;12.50;57.70
14873;DHT22;7528;48.576;19.122;2024-03-06T23:30:52;12.50;58.00
14873;DHT22;7528;48.576;19.122;2024-03-06T23:35:56;12.40;58.30
14873;DHT22;7528;48.576;19.122;2024-03-06T23:40:58;12.40;58.30
14873;DHT22;7528;48.576;19.122;2024-03-06T23:46:01;12.30;58.30
14873;DHT22;7528;48.576;19.122;2024-03-06T23:51:05;12.30;58.50
14873;DHT22;7528;48.576;19.122;2024-03-06T23:56:07;12.30;58.40
